createdAt,value
2022-12-20T00:05:17.825Z,4.38
2022-12-20T00:08:45.466Z,3.63
2022-12-20T00:22:28.320Z,3.53
2022-12-20T00:25:18.319Z,3.58
2022-12-20T00:30:56.715Z,3.55
2022-12-20T00:33:04.870Z,3.08
2022-12-20T00:40:40.941Z,3.58
2022-12-20T00:43:41.363Z,2.80
2022-12-20T00:47:12.544Z,2.85
2022-12-20T00:51:17.192Z,3.63
2022-12-20T00:54:22.199Z,2.40
2022-12-20T00:57:23.982Z,2.78
2022-12-20T01:01:04.966Z,2.60
2022-12-20T01:04:56.939Z,2.20
2022-12-20T01:23:23.680Z,2.85
2022-12-20T01:28:02.211Z,3.63
2022-12-20T01:45:41.484Z,3.22
2022-12-20T01:55:11.193Z,4.82
2022-12-20T02:03:12.717Z,3.75
2022-12-20T02:19:00.641Z,4.07
2022-12-20T02:22:57.058Z,3.53
2022-12-20T02:27:28.651Z,2.58
2022-12-20T02:30:25.493Z,2.95
2022-12-20T02:37:08.501Z,3.17
2022-12-20T02:40:03.277Z,2.92
2022-12-20T02:43:25.261Z,3.05
2022-12-20T02:46:23.543Z,3.55
2022-12-20T02:49:44.036Z,3.60
2022-12-20T02:52:57.643Z,2.28
2022-12-20T02:56:27.303Z,2.70
2022-12-20T03:08:33.808Z,4.10
2022-12-20T03:16:50.736Z,4.03
2022-12-20T03:19:37.224Z,4.93
2022-12-20T03:22:23.501Z,3.47
2022-12-20T03:25:09.508Z,3.75
2022-12-20T03:27:55.721Z,3.83
2022-12-20T03:30:43.941Z,3.97
2022-12-20T03:33:30.305Z,4.07
2022-12-20T03:36:23.434Z,3.65
2022-12-20T03:39:13.458Z,3.50
2022-12-20T03:42:00.035Z,4.03
2022-12-20T03:44:46.025Z,3.65
2022-12-20T03:47:32.723Z,4.38
2022-12-20T03:50:18.997Z,3.95
2022-12-20T03:53:05.132Z,4.28
2022-12-20T03:55:52.778Z,3.92
2022-12-20T03:58:39.352Z,3.90
2022-12-20T04:01:28.532Z,4.78
2022-12-20T04:04:16.156Z,4.18
2022-12-20T04:07:03.456Z,3.78
2022-12-20T04:09:54.468Z,3.85
2022-12-20T04:12:40.638Z,5.03
2022-12-20T04:15:32.280Z,4.75
2022-12-20T04:18:20.019Z,4.78
2022-12-20T04:21:07.247Z,4.65
2022-12-20T04:23:57.234Z,4.15
2022-12-20T04:26:49.390Z,6.30
2022-12-20T04:29:36.817Z,4.90
2022-12-20T04:32:25.018Z,4.60
2022-12-20T04:35:13.356Z,4.20
2022-12-20T04:38:01.692Z,4.47
2022-12-20T04:40:55.681Z,4.72
2022-12-20T04:43:43.190Z,4.90
2022-12-20T04:46:30.763Z,4.47
2022-12-20T04:49:19.229Z,5.40
2022-12-20T04:52:24.278Z,5.35
2022-12-20T04:55:10.662Z,5.30
2022-12-20T04:58:00.663Z,4.80
2022-12-20T05:00:52.240Z,6.75
2022-12-20T05:03:45.425Z,5.30
2022-12-20T05:06:33.409Z,5.25
2022-12-20T05:09:19.776Z,5.85
2022-12-20T05:12:07.163Z,5.60
2022-12-20T05:14:53.657Z,5.60
2022-12-20T05:17:41.615Z,7.05
2022-12-20T05:20:30.171Z,6.70
2022-12-20T05:23:39.437Z,5.72
2022-12-20T05:26:36.501Z,4.72
2022-12-20T05:29:23.442Z,5.03
2022-12-20T05:32:09.765Z,5.47
2022-12-20T05:34:59.361Z,5.55
2022-12-20T05:37:45.449Z,5.10
2022-12-20T05:40:36.596Z,5.30
2022-12-20T05:43:23.033Z,4.75
2022-12-20T05:46:10.758Z,5.45
2022-12-20T05:49:09.095Z,5.10
2022-12-20T05:51:55.384Z,5.38
2022-12-20T05:54:44.172Z,5.00
2022-12-20T05:57:33.565Z,4.28
2022-12-20T06:00:19.673Z,4.57
2022-12-20T06:03:10.114Z,4.35
2022-12-20T06:05:57.499Z,4.68
2022-12-20T06:08:48.028Z,4.30
2022-12-20T06:11:41.668Z,4.38
2022-12-20T06:14:30.773Z,4.18
2022-12-20T06:17:17.069Z,3.90
2022-12-20T06:20:04.124Z,4.25
2022-12-20T06:23:05.326Z,6.00
2022-12-20T06:26:25.013Z,4.07
2022-12-20T06:29:18.016Z,4.28
2022-12-20T06:32:11.232Z,4.18
2022-12-20T06:34:58.496Z,4.65
2022-12-20T06:37:44.775Z,4.72
2022-12-20T06:40:33.949Z,3.85
2022-12-20T06:43:28.851Z,5.22
2022-12-20T06:46:18.277Z,4.75
2022-12-20T06:49:05.457Z,4.03
2022-12-20T06:51:52.259Z,4.70
2022-12-20T06:54:45.270Z,4.00
2022-12-20T06:57:36.065Z,4.05
2022-12-20T07:00:27.528Z,4.22
2022-12-20T07:03:14.269Z,5.28
2022-12-20T07:06:00.448Z,4.05
2022-12-20T07:08:46.405Z,4.13
2022-12-20T07:11:35.576Z,3.28
2022-12-20T07:14:26.108Z,3.88
2022-12-20T07:17:12.378Z,3.85
2022-12-20T07:19:58.400Z,3.40
2022-12-20T07:23:32.137Z,4.05
2022-12-20T07:26:18.416Z,3.90
2022-12-20T07:29:04.468Z,4.30
2022-12-20T07:31:50.503Z,3.85
2022-12-20T07:34:37.661Z,1.98
2022-12-20T07:37:24.229Z,1.60
2022-12-20T07:40:14.834Z,0.90
2022-12-20T07:43:00.959Z,0.80
2022-12-20T07:45:47.607Z,0.30
2022-12-20T07:48:34.330Z,0.22
2022-12-20T07:51:41.695Z,0.60
2022-12-20T07:54:31.366Z,0.52
2022-12-20T07:57:24.326Z,0.30
2022-12-20T08:00:11.014Z,0.52
2022-12-20T08:03:10.570Z,0.45
2022-12-20T08:06:00.578Z,0.40
2022-12-20T08:08:54.474Z,0.52
2022-12-20T08:11:43.426Z,0.55
2022-12-20T08:14:29.944Z,0.50
2022-12-20T08:17:15.869Z,0.70
2022-12-20T08:20:01.855Z,0.60
2022-12-20T08:22:48.271Z,0.80
2022-12-20T08:25:41.197Z,0.47
2022-12-20T08:28:27.994Z,0.52
2022-12-20T08:31:14.645Z,0.60
2022-12-20T08:34:01.089Z,0.75
2022-12-20T08:36:47.129Z,0.63
2022-12-20T08:39:33.517Z,0.90
2022-12-20T08:42:23.737Z,0.82
2022-12-20T08:45:12.448Z,0.55
2022-12-20T08:47:58.905Z,0.40
2022-12-20T08:50:46.093Z,0.85
2022-12-20T08:53:33.426Z,0.70
2022-12-20T08:56:22.489Z,1.15
2022-12-20T08:59:09.150Z,0.77
2022-12-20T09:01:58.200Z,1.13
2022-12-20T09:04:44.855Z,0.60
2022-12-20T09:07:33.911Z,0.70
2022-12-20T09:10:20.411Z,1.02
2022-12-20T09:13:06.878Z,0.80
2022-12-20T09:15:53.697Z,1.02
2022-12-20T09:18:40.379Z,1.88
2022-12-20T09:21:29.438Z,1.27
2022-12-20T09:24:19.050Z,1.58
2022-12-20T09:27:15.056Z,1.10
2022-12-20T09:30:26.490Z,1.17
2022-12-20T09:33:12.574Z,1.23
2022-12-20T09:36:00.089Z,1.10
2022-12-20T09:38:53.271Z,1.15
2022-12-20T09:41:44.207Z,1.30
2022-12-20T09:44:41.104Z,3.13
2022-12-20T09:47:34.098Z,2.25
2022-12-20T09:50:28.040Z,1.40
2022-12-20T09:53:32.875Z,2.05
2022-12-20T09:56:59.262Z,1.50
2022-12-20T09:59:49.536Z,1.73
2022-12-20T10:03:00.612Z,1.60
2022-12-20T10:06:26.813Z,1.63
2022-12-20T10:10:02.838Z,1.30
2022-12-20T10:12:49.862Z,1.50
2022-12-20T10:15:47.338Z,2.00
2022-12-20T10:19:07.033Z,4.53
2022-12-20T10:22:03.716Z,2.33
2022-12-20T10:25:15.768Z,1.50
2022-12-20T10:28:10.530Z,1.85
2022-12-20T10:31:05.776Z,2.30
2022-12-20T10:33:52.447Z,1.90
2022-12-20T10:36:38.715Z,1.55
2022-12-20T10:39:47.164Z,2.45
2022-12-20T10:42:41.264Z,2.53
2022-12-20T10:45:36.464Z,2.33
2022-12-20T10:48:35.565Z,3.30
2022-12-20T10:51:23.351Z,3.17
2022-12-20T10:54:29.067Z,2.30
2022-12-20T10:57:27.240Z,4.10
2022-12-20T11:00:29.883Z,2.90
2022-12-20T11:03:24.884Z,2.00
2022-12-20T11:06:20.237Z,2.20
2022-12-20T11:09:23.499Z,2.35
2022-12-20T11:12:16.867Z,2.88
2022-12-20T11:15:21.557Z,1.73
2022-12-20T11:18:26.984Z,2.10
2022-12-20T11:21:32.130Z,2.35
2022-12-20T11:24:59.360Z,2.90
2022-12-20T11:28:21.790Z,2.80
2022-12-20T11:31:08.731Z,3.25
2022-12-20T11:34:34.826Z,3.35
2022-12-20T11:37:27.194Z,2.58
2022-12-20T11:40:31.597Z,2.90
2022-12-20T11:43:23.605Z,3.03
2022-12-20T11:47:10.574Z,2.55
2022-12-20T11:53:21.170Z,3.00
2022-12-20T11:56:16.665Z,3.38
2022-12-20T12:01:14.201Z,2.65
2022-12-20T12:17:10.089Z,2.78
2022-12-20T12:28:34.348Z,4.72
2022-12-20T12:31:35.450Z,2.85
2022-12-20T12:34:47.734Z,3.88
2022-12-20T12:37:44.949Z,3.42
2022-12-20T12:40:50.483Z,2.90
2022-12-20T12:43:54.811Z,3.30
2022-12-20T12:46:41.217Z,3.13
2022-12-20T12:49:30.199Z,2.97
2022-12-20T12:52:43.392Z,3.47
2022-12-20T12:55:45.510Z,4.53
2022-12-20T12:58:32.733Z,3.65
2022-12-20T13:01:57.689Z,3.30
2022-12-20T13:04:52.407Z,4.00
2022-12-20T13:07:43.515Z,3.08
2022-12-20T13:10:31.432Z,3.80
2022-12-20T13:13:22.974Z,3.13
2022-12-20T13:16:12.484Z,4.50
2022-12-20T13:19:10.935Z,2.92
2022-12-20T13:21:57.849Z,3.17
2022-12-20T13:24:48.648Z,4.05
2022-12-20T13:27:42.662Z,3.78
2022-12-20T13:30:30.614Z,2.88
2022-12-20T13:33:21.499Z,3.17
2022-12-20T13:36:10.446Z,3.22
2022-12-20T13:39:20.856Z,3.42
2022-12-20T13:42:17.027Z,3.88
2022-12-20T13:45:05.404Z,3.63
2022-12-20T13:47:55.951Z,3.38
2022-12-20T13:50:50.803Z,3.15
2022-12-20T13:53:51.622Z,4.38
2022-12-20T13:56:38.129Z,4.85
2022-12-20T13:59:32.481Z,4.82
2022-12-20T14:02:25.301Z,4.07
2022-12-20T14:05:28.566Z,4.57
2022-12-20T14:08:21.738Z,3.10
2022-12-20T14:11:22.729Z,3.53
2022-12-20T14:14:13.973Z,3.28
2022-12-20T14:17:27.009Z,3.50
2022-12-20T14:20:18.394Z,4.13
2022-12-20T14:23:12.016Z,4.00
2022-12-20T14:26:02.279Z,4.13
2022-12-20T14:28:54.718Z,3.80
2022-12-20T14:31:44.269Z,4.10
2022-12-20T14:34:38.106Z,4.18
2022-12-20T14:37:32.147Z,3.20
2022-12-20T14:40:20.515Z,3.97
2022-12-20T14:43:16.082Z,3.30
2022-12-20T14:46:30.639Z,4.28
2022-12-20T14:49:21.173Z,5.05
2022-12-20T14:52:26.591Z,4.90
2022-12-20T14:55:19.751Z,4.97
2022-12-20T14:58:23.319Z,5.15
2022-12-20T15:01:15.719Z,3.90
2022-12-20T15:04:01.962Z,3.90
2022-12-20T15:06:48.448Z,3.85
2022-12-20T15:09:34.778Z,4.00
2022-12-20T15:12:20.661Z,4.68
2022-12-20T15:15:28.184Z,4.60
2022-12-20T15:18:17.569Z,3.55
2022-12-20T15:21:14.006Z,5.00
2022-12-20T15:24:02.836Z,4.93
2022-12-20T15:26:49.460Z,4.40
2022-12-20T15:29:35.804Z,4.15
2022-12-20T15:32:29.672Z,4.65
2022-12-20T15:35:16.430Z,4.03
2022-12-20T15:38:02.685Z,5.05
2022-12-20T15:40:52.681Z,4.28
2022-12-20T15:43:39.574Z,6.28
2022-12-20T15:46:26.374Z,3.75
2022-12-20T15:49:22.482Z,4.15
2022-12-20T15:52:16.024Z,4.53
2022-12-20T15:55:02.072Z,3.70
2022-12-20T15:57:48.104Z,4.78
2022-12-20T16:00:34.074Z,4.22
2022-12-20T16:03:26.702Z,5.78
2022-12-20T16:06:13.070Z,4.47
2022-12-20T16:08:59.934Z,4.13
2022-12-20T16:11:46.755Z,5.72
2022-12-20T16:14:36.010Z,5.45
2022-12-20T16:17:21.950Z,6.30
2022-12-20T16:20:09.535Z,4.70
2022-12-20T16:22:55.356Z,5.05
2022-12-20T16:25:41.853Z,7.60
2022-12-20T16:28:30.745Z,5.72
2022-12-20T16:31:27.936Z,6.80
2022-12-20T16:34:18.735Z,5.90
2022-12-20T16:37:08.221Z,4.80
2022-12-20T16:39:55.250Z,6.45
2022-12-20T16:42:41.711Z,6.28
2022-12-20T16:45:32.852Z,6.15
2022-12-20T16:48:19.090Z,6.63
2022-12-20T16:51:27.013Z,5.90
2022-12-20T16:54:19.786Z,6.22
2022-12-20T16:57:06.597Z,5.83
2022-12-20T16:59:52.454Z,6.70
2022-12-20T17:02:38.649Z,7.22
2022-12-20T17:05:28.803Z,6.35
2022-12-20T17:11:21.114Z,6.50
2022-12-20T17:14:12.363Z,6.95
2022-12-20T17:16:58.949Z,5.93
2022-12-20T17:19:45.689Z,6.53
2022-12-20T17:25:36.669Z,5.65
2022-12-20T17:28:23.431Z,6.65
2022-12-20T17:31:29.239Z,6.78
2022-12-20T17:34:30.363Z,5.95
2022-12-20T17:37:17.955Z,7.20
2022-12-20T17:40:04.588Z,7.47
2022-12-20T17:42:51.286Z,7.55
2022-12-20T17:45:41.312Z,6.57
2022-12-20T17:48:32.683Z,6.85
2022-12-20T17:51:23.349Z,8.30
2022-12-20T17:54:18.462Z,7.57
2022-12-20T17:57:04.971Z,8.07
2022-12-20T17:59:51.287Z,8.25
2022-12-20T18:02:37.787Z,7.45
2022-12-20T18:05:25.075Z,7.05
2022-12-20T18:08:11.541Z,7.30
2022-12-20T18:11:01.107Z,8.50
2022-12-20T18:13:49.465Z,7.47
2022-12-20T18:16:39.632Z,7.60
2022-12-20T18:19:25.734Z,9.00
2022-12-20T18:22:14.739Z,9.05
2022-12-20T18:25:06.009Z,9.57
2022-12-20T18:27:51.844Z,9.00
2022-12-20T18:30:39.209Z,8.07
2022-12-20T18:33:25.455Z,8.65
2022-12-20T18:36:19.695Z,6.93
2022-12-20T18:39:08.286Z,8.85
2022-12-20T18:41:54.272Z,7.70
2022-12-20T18:44:40.321Z,8.25
2022-12-20T18:47:26.296Z,9.05
2022-12-20T18:50:13.267Z,8.43
2022-12-20T18:53:01.789Z,8.32
2022-12-20T18:55:48.415Z,7.97
2022-12-20T18:58:36.443Z,9.20
2022-12-20T19:01:25.201Z,8.45
2022-12-20T19:04:12.156Z,9.35
2022-12-20T19:06:58.277Z,8.55
2022-12-20T19:09:46.056Z,8.07
2022-12-20T19:12:41.999Z,8.15
2022-12-20T19:15:31.610Z,9.18
2022-12-20T19:18:20.853Z,9.02
2022-12-20T19:21:15.520Z,7.13
2022-12-20T19:24:06.703Z,8.63
2022-12-20T19:26:52.851Z,8.13
2022-12-20T19:29:38.989Z,7.93
2022-12-20T19:32:25.454Z,8.38
2022-12-20T19:35:45.616Z,7.10
2022-12-20T19:38:19.655Z,7.93
2022-12-20T19:41:05.763Z,9.77
2022-12-20T19:43:53.126Z,8.98
2022-12-20T19:46:42.368Z,10.10
2022-12-20T19:49:28.531Z,8.93
2022-12-20T19:52:14.935Z,10.70
2022-12-20T19:55:01.061Z,10.30
2022-12-20T19:57:47.961Z,10.40
2022-12-20T20:00:37.319Z,9.00
2022-12-20T20:03:26.987Z,8.73
2022-12-20T20:06:14.013Z,11.73
2022-12-20T20:09:06.175Z,9.60
2022-12-20T20:11:54.934Z,9.23
2022-12-20T20:14:46.106Z,9.45
2022-12-20T20:17:41.095Z,8.27
2022-12-20T20:20:51.717Z,8.65
2022-12-20T20:23:44.778Z,9.45
2022-12-20T20:26:34.912Z,9.85
2022-12-20T20:29:21.026Z,9.82
2022-12-20T20:32:07.731Z,9.60
2022-12-20T20:34:53.684Z,8.32
2022-12-20T20:37:39.924Z,7.80
2022-12-20T20:40:26.295Z,9.65
2022-12-20T20:43:12.285Z,9.00
2022-12-20T20:45:58.208Z,9.43
2022-12-20T20:48:45.022Z,8.98
2022-12-20T20:51:32.109Z,9.90
2022-12-20T20:54:17.915Z,12.35
2022-12-20T20:57:03.996Z,8.30
2022-12-20T20:59:49.995Z,8.13
2022-12-20T21:02:36.197Z,7.50
2022-12-20T21:08:28.726Z,7.75
2022-12-20T21:11:14.676Z,8.20
2022-12-20T21:14:03.393Z,7.85
2022-12-20T21:16:49.339Z,9.68
2022-12-20T21:19:38.668Z,7.90
2022-12-20T21:22:24.541Z,7.35
2022-12-20T21:25:10.544Z,8.63
2022-12-20T21:27:57.196Z,7.85
2022-12-20T21:30:43.275Z,7.65
2022-12-20T21:33:29.681Z,7.00
2022-12-20T21:36:17.704Z,9.80
2022-12-20T21:39:04.206Z,7.15
2022-12-20T21:41:50.477Z,8.02
2022-12-20T21:44:36.618Z,7.18
2022-12-20T21:47:22.589Z,7.00
2022-12-20T21:50:14.117Z,7.60
2022-12-20T21:53:02.614Z,6.53
2022-12-20T21:55:48.469Z,7.07
2022-12-20T21:58:35.106Z,7.70
2022-12-20T22:01:24.286Z,6.93
2022-12-20T22:04:12.021Z,7.22
2022-12-20T22:06:57.895Z,6.43
2022-12-20T22:09:43.867Z,7.05
2022-12-20T22:12:30.626Z,7.50
2022-12-20T22:15:19.585Z,7.30
2022-12-20T22:18:07.200Z,7.53
2022-12-20T22:20:53.527Z,7.68
2022-12-20T22:23:40.386Z,7.60
2022-12-20T22:26:29.445Z,8.57
2022-12-20T22:29:15.955Z,6.75
2022-12-20T22:32:02.312Z,8.02
2022-12-20T22:34:48.696Z,6.22
2022-12-20T22:37:35.052Z,5.88
2022-12-20T22:40:20.934Z,7.05
2022-12-20T22:43:06.895Z,7.43
2022-12-20T22:45:59.889Z,7.10
2022-12-20T22:48:47.031Z,6.90
2022-12-20T22:51:33.813Z,7.00
2022-12-20T22:54:19.918Z,8.15
2022-12-20T22:57:05.963Z,6.65
2022-12-20T22:59:52.022Z,6.78
2022-12-20T23:02:38.389Z,6.25
2022-12-20T23:05:25.062Z,6.75
2022-12-20T23:08:10.912Z,6.80
2022-12-20T23:11:16.242Z,7.15
2022-12-20T23:14:22.252Z,8.57
2022-12-20T23:17:09.634Z,7.82
2022-12-20T23:20:14.610Z,6.88
2022-12-20T23:23:00.531Z,6.35
2022-12-20T23:25:46.609Z,8.02
2022-12-20T23:28:33.634Z,5.28
2022-12-20T23:31:19.604Z,5.55
2022-12-20T23:34:06.440Z,7.22
2022-12-20T23:36:52.434Z,8.02
2022-12-20T23:39:38.424Z,6.13
2022-12-20T23:42:24.422Z,6.00
2022-12-20T23:45:14.046Z,6.53
2022-12-20T23:48:00.119Z,5.93
2022-12-20T23:50:55.939Z,6.18
2022-12-20T23:53:42.180Z,6.40
2022-12-20T23:56:28.158Z,5.47
2022-12-20T23:59:14.722Z,6.72
